Impacts TAF Board INFO
FOR SITUATIONAL AWARENESS. NOT TO BE USED FOR FLIGHT PLANNING PURPOSES.
IDs:

KMIA - Miami Intl, FL, US

Issued at 0520 UTC 11 Dec 2017
Updated at 0728 UTC 11 Dec 2017
Potential Impact None Slight Moderate High
Time0653Z 11/08Z 11/09Z 11/10Z 11/11Z 11/12Z 11/13Z 11/14Z 11/15Z 11/16Z 11/17Z 11/18Z 11/19Z 11/20Z>>
Type OBS PRVL PRVL PRVL PRVL PRVL PRVL PRVL PRVL PRVL PRVL PRVL PRVL PRVL
VIS 10 >6 >6 >6 >6 >6 >6 >6 >6 >6 >6 >6 >6 >6
CIG -- -- -- -- -- -- -- -- -- -- -- -- -- --
Cover CLR FEW FEW FEW FEW FEW FEW FEW SKC SKC SKC SKC SKC SCT
FltCat VFR VFR VFR VFR VFR VFR VFR VFR VFR VFR VFR VFR VFR VFR
WX -- -- -- -- -- -- -- -- -- -- -- -- -- --
WDir 320 320 320 320 320 320 320 320 350 350 350 350 350 VRB
WSpd 7 5 5 5 5 5 5 5 8 8 8 8 8 3
WGst -- -- -- -- -- -- -- -- -- -- -- -- -- --

Raw TAF
KMIA 110520Z 1106/1212 32005KT P6SM FEW030
  FM111500 35008KT P6SM SKC
  FM112000 VRB03KT P6SM SCT030


Raw METAR
KMIA 110653Z 32007KT 10SM CLR 12/04 A3024 RMK AO2 SLP240 T01220044 $
KMIA 110553Z 31007KT 10SM CLR 13/05 A3026 RMK AO2 SLP246 T01280050 10139 20122 58010 $
KMIA 110453Z 32004KT 10SM CLR 13/05 A3027 RMK AO2 SLP250 T01280050 401780100 $

METAR Board
Radar Display
Forecast Discussion

FOR SITUATIONAL AWARENESS. NOT TO BE USED FOR FLIGHT PLANNING PURPOSES.